Back to Top

Language: 

My Weather Underground Personal Weather Station Historical Data with Graphs...

Delerius Weather Station Historical Data
Daily Summary for May 21, 2017 Units:  English    Metric   Both
« Previous Day
Next Day »
Daily Weekly Monthly Yearly Custom
  High: Low: Average:
Temperature: 64.9 °F 43.9 °F 55.6 °F
Dew Point: 50.4 °F 41.7 °F 47 °F
Humidity: 93 % 54 % 74 %
Wind Speed: 13.0 mph 0.0 mph 5.7 mph
Wind Gust: 22.0 mph - -
Wind:- - SSW
Pressure: 30.19 in 30.10 in -
Precipitation: 0.00 in    
Historical Graphs
 
 
Tabular Data for May 21, 2017
Time Temperature Dew Point Pressure Wind Wind Speed Wind Gust Humidity Rainfall Rate (Hourly) solar Conditions
00:01 44.8 °F 42.6 °F 30.10 in Calm   2.0 mph 92 % 0.00 in 0 W/m2
00:06 45.0 °F 43.1 °F 30.10 in Calm   2.0 mph 93 % 0.00 in 0 W/m2
00:11 45.0 °F 42.8 °F 30.11 in Calm   2.0 mph 92 % 0.00 in 0 W/m2
00:16 45.0 °F 42.8 °F 30.11 in Calm   1.0 mph 92 % 0.00 in 0 W/m2
00:21 44.8 °F 42.6 °F 30.11 in Calm   1.0 mph 92 % 0.00 in 0 W/m2
00:26 44.8 °F 42.3 °F 30.11 in Calm     91 % 0.00 in 0 W/m2
00:31 44.6 °F 42.1 °F 30.11 in Calm     91 % 0.00 in 0 W/m2
00:36 44.4 °F 42.0 °F 30.11 in Calm     91 % 0.00 in 0 W/m2
00:41 44.2 °F 42.1 °F 30.11 in Calm   1.0 mph 92 % 0.00 in 0 W/m2
00:46 44.2 °F 42.1 °F 30.12 in Calm   1.0 mph 92 % 0.00 in 0 W/m2
00:51 44.2 °F 42.1 °F 30.12 in Calm     92 % 0.00 in 0 W/m2
00:56 44.2 °F 42.1 °F 30.12 in Calm   2.0 mph 92 % 0.00 in 0 W/m2
01:01 44.1 °F 41.9 °F 30.12 in Calm   2.0 mph 92 % 0.00 in 0 W/m2
01:07 44.1 °F 41.9 °F 30.12 in Calm   2.0 mph 92 % 0.00 in 0 W/m2
01:12 44.1 °F 41.9 °F 30.12 in Calm   1.0 mph 92 % 0.00 in 0 W/m2
01:17 43.9 °F 41.7 °F 30.12 in Calm   2.0 mph 92 % 0.00 in 0 W/m2
01:22 43.9 °F 42.0 °F 30.12 in SW 1.0 mph 8.0 mph 93 % 0.00 in 0 W/m2
01:27 44.2 °F 42.3 °F 30.12 in SW 3.0 mph 8.0 mph 93 % 0.00 in 0 W/m2
01:32 45.0 °F 43.1 °F 30.12 in SW 5.0 mph 10.0 mph 93 % 0.00 in 0 W/m2
01:37 45.9 °F 44.0 °F 30.12 in SW 6.0 mph 11.0 mph 93 % 0.00 in 0 W/m2
01:42 46.6 °F 44.1 °F 30.12 in SW 7.0 mph 12.0 mph 91 % 0.00 in 0 W/m2
01:47 46.9 °F 43.9 °F 30.12 in SW 7.0 mph 12.0 mph 89 % 0.00 in 0 W/m2
01:52 47.1 °F 43.7 °F 30.12 in SW 5.0 mph 10.0 mph 88 % 0.00 in 0 W/m2
01:57 46.9 °F 43.6 °F 30.12 in SSW 2.0 mph 8.0 mph 88 % 0.00 in 0 W/m2
02:02 46.8 °F 43.4 °F 30.12 in SSW 4.0 mph 10.0 mph 88 % 0.00 in 0 W/m2
02:07 46.8 °F 43.7 °F 30.12 in SSW 6.0 mph 10.0 mph 89 % 0.00 in 0 W/m2
02:12 46.8 °F 43.4 °F 30.12 in SSW 6.0 mph 10.0 mph 88 % 0.00 in 0 W/m2
02:17 46.8 °F 43.4 °F 30.12 in SSW 7.0 mph 10.0 mph 88 % 0.00 in 0 W/m2
02:22 46.9 °F 43.6 °F 30.12 in SW 7.0 mph 11.0 mph 88 % 0.00 in 0 W/m2
02:23 46.9 °F 43.6 °F 30.12 in SW 7.0 mph 11.0 mph 88 % 0.00 in 0 W/m2
02:28 47.1 °F 43.7 °F 30.12 in SW 7.0 mph 11.0 mph 88 % 0.00 in 0 W/m2
02:33 47.1 °F 43.7 °F 30.12 in SW 7.0 mph 11.0 mph 88 % 0.00 in 0 W/m2
02:38 47.5 °F 44.1 °F 30.13 in SW 7.0 mph 11.0 mph 88 % 0.00 in 0 W/m2
02:43 47.7 °F 44.0 °F 30.13 in SW 7.0 mph 11.0 mph 87 % 0.00 in 0 W/m2
02:48 47.7 °F 44.0 °F 30.13 in SW 7.0 mph 13.0 mph 87 % 0.00 in 0 W/m2
02:53 47.8 °F 44.2 °F 30.13 in SW 8.0 mph 13.0 mph 87 % 0.00 in 0 W/m2
02:58 47.8 °F 44.2 °F 30.13 in SW 8.0 mph 12.0 mph 87 % 0.00 in 0 W/m2
03:03 47.8 °F 44.2 °F 30.13 in SW 7.0 mph 10.0 mph 87 % 0.00 in 0 W/m2
03:08 47.8 °F 44.2 °F 30.13 in SSW 6.0 mph 10.0 mph 87 % 0.00 in 0 W/m2
03:13 47.8 °F 44.2 °F 30.13 in SSW 6.0 mph 10.0 mph 87 % 0.00 in 0 W/m2
03:18 47.8 °F 44.2 °F 30.13 in SSW 5.0 mph 10.0 mph 87 % 0.00 in 0 W/m2
03:23 47.8 °F 44.5 °F 30.13 in SSW 4.0 mph 9.0 mph 88 % 0.00 in 0 W/m2
03:28 47.7 °F 44.3 °F 30.13 in SSW 2.0 mph 8.0 mph 88 % 0.00 in 0 W/m2
03:33 47.7 °F 44.3 °F 30.13 in SSW 2.0 mph 8.0 mph 88 % 0.00 in 0 W/m2
03:38 47.7 °F 44.3 °F 30.13 in South 3.0 mph 8.0 mph 88 % 0.00 in 0 W/m2
03:43 47.7 °F 44.3 °F 30.13 in South 3.0 mph 8.0 mph 88 % 0.00 in 0 W/m2
03:48 47.5 °F 44.1 °F 30.13 in South 2.0 mph 7.0 mph 88 % 0.00 in 0 W/m2
03:53 47.5 °F 44.1 °F 30.13 in South 1.0 mph 5.0 mph 88 % 0.00 in 0 W/m2
03:59 47.1 °F 43.7 °F 30.13 in Calm   4.0 mph 88 % 0.00 in 0 W/m2
04:04 46.8 °F 43.4 °F 30.13 in Calm   2.0 mph 88 % 0.00 in 0 W/m2
04:09 46.6 °F 43.5 °F 30.13 in South 1.0 mph 5.0 mph 89 % 0.00 in 0 W/m2
04:14 46.2 °F 43.2 °F 30.13 in South 1.0 mph 5.0 mph 89 % 0.00 in 0 W/m2
04:19 46.0 °F 43.3 °F 30.13 in South 1.0 mph 4.0 mph 90 % 0.00 in 0 W/m2
04:24 45.9 °F 43.1 °F 30.13 in South 1.0 mph 4.0 mph 90 % 0.00 in 0 W/m2
04:29 45.9 °F 43.1 °F 30.13 in South 2.0 mph 4.0 mph 90 % 0.00 in 0 W/m2
04:34 45.9 °F 43.1 °F 30.13 in South 2.0 mph 4.0 mph 90 % 0.00 in 0 W/m2
04:38 45.7 °F 43.2 °F 30.13 in South 1.0 mph 5.0 mph 91 % 0.00 in 0 W/m2
04:43 45.7 °F 43.2 °F 30.13 in South 2.0 mph 6.0 mph 91 % 0.00 in 0 W/m2
04:49 45.7 °F 43.2 °F 30.13 in SSE 2.0 mph 6.0 mph 91 % 0.00 in 0 W/m2
04:54 45.7 °F 43.5 °F 30.14 in ESE 3.0 mph 6.0 mph 92 % 0.00 in 0 W/m2
04:59 45.9 °F 43.4 °F 30.14 in ESE 3.0 mph 7.0 mph 91 % 0.00 in 5 W/m2
05:04 45.9 °F 43.4 °F 30.14 in SE 3.0 mph 7.0 mph 91 % 0.00 in 7 W/m2
05:09 45.9 °F 43.4 °F 30.14 in SE 4.0 mph 8.0 mph 91 % 0.00 in 9 W/m2
05:14 46.0 °F 43.6 °F 30.14 in SSE 5.0 mph 8.0 mph 91 % 0.00 in 12 W/m2
05:19 46.0 °F 43.6 °F 30.14 in SSE 5.0 mph 8.0 mph 91 % 0.00 in 16 W/m2
05:21 46.0 °F 43.6 °F 30.14 in SSE 5.0 mph 11.0 mph 91 % 0.00 in 18 W/m2
05:26 46.4 °F 43.9 °F 30.15 in SSE 6.0 mph 11.0 mph 91 % 0.00 in 19 W/m2
05:31 46.6 °F 43.8 °F 30.15 in SSE 4.0 mph 9.0 mph 90 % 0.00 in 21 W/m2
05:36 46.6 °F 43.8 °F 30.15 in SSE 2.0 mph 7.0 mph 90 % 0.00 in 21 W/m2
05:41 46.4 °F 43.6 °F 30.15 in Calm   4.0 mph 90 % 0.00 in 25 W/m2
05:46 46.2 °F 43.4 °F 30.15 in Calm   2.0 mph 90 % 0.00 in 26 W/m2
05:56 46.6 °F 44.1 °F 30.15 in SW 5.0 mph 11.0 mph 91 % 0.00 in 37 W/m2
06:01 46.8 °F 44.3 °F 30.15 in SW 5.0 mph 11.0 mph 91 % 0.00 in 40 W/m2
06:06 46.9 °F 44.2 °F 30.15 in SW 7.0 mph 16.0 mph 90 % 0.00 in 47 W/m2
06:11 47.1 °F 44.3 °F 30.15 in SW 8.0 mph 16.0 mph 90 % 0.00 in 49 W/m2
06:16 47.3 °F 44.2 °F 30.16 in SW 7.0 mph 13.0 mph 89 % 0.00 in 47 W/m2
06:21 47.5 °F 44.4 °F 30.16 in SW 7.0 mph 13.0 mph 89 % 0.00 in 49 W/m2
06:26 47.5 °F 44.4 °F 30.16 in SW 7.0 mph 11.0 mph 89 % 0.00 in 53 W/m2
06:31 47.5 °F 44.4 °F 30.15 in SW 7.0 mph 13.0 mph 89 % 0.00 in 46 W/m2
06:34 47.7 °F 44.6 °F 30.15 in SW 7.0 mph 13.0 mph 89 % 0.00 in 49 W/m2
06:39 47.7 °F 44.6 °F 30.16 in SSW 7.0 mph 13.0 mph 89 % 0.00 in 67 W/m2
06:44 47.8 °F 44.8 °F 30.16 in SSW 7.0 mph 13.0 mph 89 % 0.00 in 83 W/m2
06:49 48.0 °F 44.9 °F 30.16 in SSW 7.0 mph 11.0 mph 89 % 0.00 in 95 W/m2
06:54 48.4 °F 45.3 °F 30.17 in SSW 7.0 mph 11.0 mph 89 % 0.00 in 97 W/m2
06:59 48.6 °F 45.5 °F 30.17 in SW 7.0 mph 11.0 mph 89 % 0.00 in 98 W/m2
07:04 48.9 °F 45.8 °F 30.17 in SW 8.0 mph 12.0 mph 89 % 0.00 in 100 W/m2
07:09 49.5 °F 46.1 °F 30.17 in SSW 7.0 mph 13.0 mph 88 % 0.00 in 109 W/m2
07:14 49.6 °F 46.2 °F 30.17 in SSW 6.0 mph 13.0 mph 88 % 0.00 in 211 W/m2
07:19 50.2 °F 46.8 °F 30.17 in SW 6.0 mph 11.0 mph 88 % 0.00 in 141 W/m2
07:24 50.5 °F 46.8 °F 30.17 in SSW 7.0 mph 13.0 mph 87 % 0.00 in 244 W/m2
07:29 50.9 °F 47.2 °F 30.17 in SSW 6.0 mph 13.0 mph 87 % 0.00 in 288 W/m2
07:34 51.1 °F 46.7 °F 30.17 in SSW 7.0 mph 12.0 mph 85 % 0.00 in 248 W/m2
07:39 51.4 °F 47.1 °F 30.18 in SSW 7.0 mph 12.0 mph 85 % 0.00 in 258 W/m2
07:44 51.8 °F 47.4 °F 30.18 in SSW 6.0 mph 10.0 mph 85 % 0.00 in 360 W/m2
07:49 52.2 °F 47.8 °F 30.18 in SSW 6.0 mph 9.0 mph 85 % 0.00 in 332 W/m2
07:54 52.5 °F 47.8 °F 30.18 in SSW 5.0 mph 9.0 mph 84 % 0.00 in 316 W/m2
07:59 53.1 °F 48.4 °F 30.18 in SW 5.0 mph 11.0 mph 84 % 0.00 in 387 W/m2
08:04 53.4 °F 48.4 °F 30.18 in SW 6.0 mph 11.0 mph 83 % 0.00 in 220 W/m2
08:10 53.8 °F 48.4 °F 30.18 in SW 6.0 mph 11.0 mph 82 % 0.00 in 522 W/m2
08:15 54.1 °F 48.4 °F 30.18 in SW 7.0 mph 12.0 mph 81 % 0.00 in 258 W/m2
08:20 54.7 °F 49.0 °F 30.18 in WSW 7.0 mph 12.0 mph 81 % 0.00 in 225 W/m2
08:25 54.7 °F 48.6 °F 30.18 in WSW 7.0 mph 13.0 mph 80 % 0.00 in 207 W/m2
08:30 54.7 °F 48.6 °F 30.19 in SW 7.0 mph 13.0 mph 80 % 0.00 in 232 W/m2
08:35 54.5 °F 48.5 °F 30.19 in SW 7.0 mph 14.0 mph 80 % 0.00 in 229 W/m2
08:40 54.7 °F 48.6 °F 30.19 in SW 7.0 mph 14.0 mph 80 % 0.00 in 464 W/m2
08:45 55.0 °F 49.0 °F 30.19 in WSW 6.0 mph 11.0 mph 80 % 0.00 in 425 W/m2
08:50 55.6 °F 49.2 °F 30.19 in WSW 7.0 mph 11.0 mph 79 % 0.00 in 318 W/m2
08:55 55.8 °F 49.0 °F 30.19 in SW 7.0 mph 11.0 mph 78 % 0.00 in 397 W/m2
09:00 55.9 °F 49.2 °F 30.19 in SW 6.0 mph 11.0 mph 78 % 0.00 in 450 W/m2
09:05 56.3 °F 49.5 °F 30.19 in SW 7.0 mph 12.0 mph 78 % 0.00 in 496 W/m2
09:10 56.7 °F 49.5 °F 30.19 in SW 7.0 mph 14.0 mph 77 % 0.00 in 497 W/m2
09:15 56.8 °F 49.4 °F 30.19 in SW 8.0 mph 14.0 mph 76 % 0.00 in 473 W/m2
09:20 57.2 °F 49.7 °F 30.19 in SW 7.0 mph 12.0 mph 76 % 0.00 in 452 W/m2
09:25 57.7 °F 49.9 °F 30.19 in SW 6.0 mph 10.0 mph 75 % 0.00 in 506 W/m2
09:30 57.9 °F 49.7 °F 30.19 in SSW 7.0 mph 14.0 mph 74 % 0.00 in 394 W/m2
09:35 57.9 °F 49.3 °F 30.19 in SSW 8.0 mph 15.0 mph 73 % 0.00 in 338 W/m2
09:40 58.1 °F 49.5 °F 30.19 in SSW 9.0 mph 18.0 mph 73 % 0.00 in 570 W/m2
09:45 58.3 °F 49.7 °F 30.19 in SSW 9.0 mph 18.0 mph 73 % 0.00 in 571 W/m2
09:50 58.5 °F 49.8 °F 30.19 in SSW 9.0 mph 14.0 mph 73 % 0.00 in 657 W/m2
09:55 58.6 °F 50.0 °F 30.19 in SSW 9.0 mph 16.0 mph 73 % 0.00 in 659 W/m2
10:00 59.2 °F 50.2 °F 30.19 in SSW 10.0 mph 18.0 mph 72 % 0.00 in 705 W/m2
10:05 59.5 °F 49.7 °F 30.19 in SSW 9.0 mph 18.0 mph 70 % 0.00 in 708 W/m2
10:10 60.1 °F 50.3 °F 30.19 in SSW 8.0 mph 15.0 mph 70 % 0.00 in 698 W/m2
10:15 60.3 °F 49.7 °F 30.19 in SW 8.0 mph 15.0 mph 68 % 0.00 in 592 W/m2
10:20 60.6 °F 50.4 °F 30.19 in SW 8.0 mph 15.0 mph 69 % 0.00 in 682 W/m2
10:25 60.6 °F 49.6 °F 30.19 in SW 9.0 mph 15.0 mph 67 % 0.00 in 679 W/m2
10:30 61.0 °F 49.9 °F 30.19 in SW 9.0 mph 15.0 mph 67 % 0.00 in 722 W/m2
10:35 60.6 °F 49.2 °F 30.19 in SW 10.0 mph 20.0 mph 66 % 0.00 in 719 W/m2
10:41 60.4 °F 48.6 °F 30.19 in SSW 12.0 mph 22.0 mph 65 % 0.00 in 719 W/m2
10:46 60.3 °F 48.9 °F 30.19 in SW 11.0 mph 22.0 mph 66 % 0.00 in 838 W/m2
10:51 61.0 °F 49.5 °F 30.19 in SW 8.0 mph 18.0 mph 66 % 0.00 in 283 W/m2
10:56 60.6 °F 49.2 °F 30.19 in SW 9.0 mph 15.0 mph 66 % 0.00 in 253 W/m2
11:01 60.3 °F 48.9 °F 30.19 in SSW 10.0 mph 15.0 mph 66 % 0.00 in 367 W/m2
11:06 60.1 °F 49.1 °F 30.19 in SSW 9.0 mph 16.0 mph 67 % 0.00 in 239 W/m2
11:11 59.9 °F 48.9 °F 30.19 in SW 10.0 mph 16.0 mph 67 % 0.00 in 274 W/m2
11:16 59.5 °F 48.6 °F 30.19 in SW 10.0 mph 20.0 mph 67 % 0.00 in 360 W/m2
11:21 59.7 °F 49.1 °F 30.19 in SSW 11.0 mph 22.0 mph 68 % 0.00 in 742 W/m2
11:26 60.6 °F 50.0 °F 30.19 in SSW 12.0 mph 22.0 mph 68 % 0.00 in 1014 W/m2
11:31 61.0 °F 49.1 °F 30.19 in SSW 13.0 mph 21.0 mph 65 % 0.00 in 904 W/m2
11:36 61.2 °F 49.3 °F 30.19 in SSW 12.0 mph 21.0 mph 65 % 0.00 in 872 W/m2
11:41 61.5 °F 49.6 °F 30.19 in SW 10.0 mph 20.0 mph 65 % 0.00 in 738 W/m2
11:46 61.3 °F 49.1 °F 30.19 in SSW 10.0 mph 16.0 mph 64 % 0.00 in 399 W/m2
11:51 61.2 °F 48.5 °F 30.19 in SW 10.0 mph 19.0 mph 63 % 0.00 in 517 W/m2
11:56 61.2 °F 48.5 °F 30.19 in SW 10.0 mph 19.0 mph 63 % 0.00 in 364 W/m2
12:01 61.3 °F 49.1 °F 30.19 in SW 9.0 mph 15.0 mph 64 % 0.00 in 455 W/m2
12:06 61.3 °F 49.1 °F 30.19 in SW 9.0 mph 15.0 mph 64 % 0.00 in 448 W/m2
12:11 61.3 °F 49.1 °F 30.18 in SSW 9.0 mph 18.0 mph 64 % 0.00 in 448 W/m2
12:16 61.9 °F 48.3 °F 30.19 in SW 10.0 mph 18.0 mph 61 % 0.00 in 988 W/m2
12:21 62.4 °F 48.3 °F 30.18 in SSW 10.0 mph 19.0 mph 60 % 0.00 in 824 W/m2
12:26 62.4 °F 48.8 °F 30.19 in SSW 10.0 mph 19.0 mph 61 % 0.00 in 343 W/m2
12:31 61.9 °F 47.8 °F 30.19 in SSW 11.0 mph 21.0 mph 60 % 0.00 in 367 W/m2
12:36 61.5 °F 47.9 °F 30.19 in SSW 11.0 mph 21.0 mph 61 % 0.00 in 418 W/m2
12:41 61.7 °F 48.5 °F 30.19 in SSW 11.0 mph 21.0 mph 62 % 0.00 in 429 W/m2
12:46 61.5 °F 48.4 °F 30.19 in SSW 11.0 mph 21.0 mph 62 % 0.00 in 388 W/m2
12:51 61.5 °F 48.4 °F 30.19 in SW 11.0 mph 20.0 mph 62 % 0.00 in 457 W/m2
12:56 61.5 °F 48.8 °F 30.19 in SW 11.0 mph 20.0 mph 63 % 0.00 in 446 W/m2
13:01 61.5 °F 49.2 °F 30.19 in SW 11.0 mph 16.0 mph 64 % 0.00 in 633 W/m2
13:06 61.9 °F 48.7 °F 30.19 in SSW 11.0 mph 21.0 mph 62 % 0.00 in 577 W/m2
13:11 61.9 °F 47.8 °F 30.18 in SSW 11.0 mph 21.0 mph 60 % 0.00 in 462 W/m2
13:16 62.1 °F 48.4 °F 30.18 in SSW 9.0 mph 16.0 mph 61 % 0.00 in 434 W/m2
13:21 62.2 °F 48.6 °F 30.18 in SW 10.0 mph 21.0 mph 61 % 0.00 in 381 W/m2
13:26 62.1 °F 47.6 °F 30.19 in SW 11.0 mph 21.0 mph 59 % 0.00 in 362 W/m2
13:31 61.5 °F 47.1 °F 30.19 in SW 11.0 mph 20.0 mph 59 % 0.00 in 397 W/m2
13:36 61.5 °F 47.5 °F 30.18 in SSW 11.0 mph 20.0 mph 60 % 0.00 in 308 W/m2
13:41 61.5 °F 47.5 °F 30.19 in SW 11.0 mph 20.0 mph 60 % 0.00 in 339 W/m2
13:46 61.5 °F 47.9 °F 30.19 in SW 10.0 mph 19.0 mph 61 % 0.00 in 290 W/m2
13:51 61.3 °F 47.8 °F 30.18 in SW 11.0 mph 21.0 mph 61 % 0.00 in 301 W/m2
13:56 61.3 °F 48.2 °F 30.18 in SW 11.0 mph 21.0 mph 62 % 0.00 in 380 W/m2
14:01 61.2 °F 48.5 °F 30.18 in SW 9.0 mph 19.0 mph 63 % 0.00 in 642 W/m2
14:06 61.9 °F 49.1 °F 30.18 in SSW 8.0 mph 19.0 mph 63 % 0.00 in 608 W/m2
14:11 62.2 °F 48.2 °F 30.18 in SSW 8.0 mph 15.0 mph 60 % 0.00 in 543 W/m2
14:12 62.4 °F 48.3 °F 30.18 in SSW 8.0 mph 15.0 mph 60 % 0.00 in 543 W/m2
14:17 62.2 °F 48.2 °F 30.18 in SSW 9.0 mph 18.0 mph 60 % 0.00 in 534 W/m2
14:22 62.6 °F 48.5 °F 30.18 in SSW 8.0 mph 18.0 mph 60 % 0.00 in 461 W/m2
14:27 62.6 °F 49.0 °F 30.18 in SW 8.0 mph 13.0 mph 61 % 0.00 in 362 W/m2
14:32 62.4 °F 48.8 °F 30.18 in SW 7.0 mph 11.0 mph 61 % 0.00 in 272 W/m2
14:37 62.2 °F 48.6 °F 30.18 in SW 6.0 mph 11.0 mph 61 % 0.00 in 262 W/m2
14:42 62.4 °F 49.2 °F 30.18 in SW 6.0 mph 12.0 mph 62 % 0.00 in 334 W/m2
14:47 62.4 °F 49.2 °F 30.18 in SW 6.0 mph 12.0 mph 62 % 0.00 in 425 W/m2
14:52 62.8 °F 49.1 °F 30.18 in SW 7.0 mph 16.0 mph 61 % 0.00 in 357 W/m2
14:57 62.6 °F 48.5 °F 30.17 in SSW 8.0 mph 16.0 mph 60 % 0.00 in 438 W/m2
15:02 62.6 °F 48.5 °F 30.17 in SSW 9.0 mph 16.0 mph 60 % 0.00 in 448 W/m2
15:07 62.8 °F 47.8 °F 30.17 in SSW 9.0 mph 15.0 mph 58 % 0.00 in 327 W/m2
15:12 63.0 °F 48.9 °F 30.17 in SW 8.0 mph 15.0 mph 60 % 0.00 in 327 W/m2
15:17 63.1 °F 48.6 °F 30.17 in SW 8.0 mph 14.0 mph 59 % 0.00 in 396 W/m2
15:22 63.1 °F 49.0 °F 30.17 in SW 8.0 mph 14.0 mph 60 % 0.00 in 295 W/m2
15:27 63.1 °F 49.0 °F 30.17 in SSW 7.0 mph 13.0 mph 60 % 0.00 in 241 W/m2
15:32 62.8 °F 48.7 °F 30.17 in SSW 8.0 mph 13.0 mph 60 % 0.00 in 257 W/m2
15:37 62.4 °F 48.8 °F 30.17 in SSW 8.0 mph 12.0 mph 61 % 0.00 in 399 W/m2
15:39 62.4 °F 48.8 °F 30.17 in South 7.0 mph 12.0 mph 61 % 0.00 in 429 W/m2
15:44 62.8 °F 49.6 °F 30.16 in SSW 6.0 mph 11.0 mph 62 % 0.00 in 439 W/m2
15:49 63.1 °F 49.9 °F 30.16 in SSW 5.0 mph 10.0 mph 62 % 0.00 in 327 W/m2
15:54 63.5 °F 49.8 °F 30.16 in SW 6.0 mph 11.0 mph 61 % 0.00 in 392 W/m2
15:59 63.9 °F 49.7 °F 30.16 in SSW 7.0 mph 12.0 mph 60 % 0.00 in 889 W/m2
16:04 64.0 °F 48.5 °F 30.15 in SSW 8.0 mph 18.0 mph 57 % 0.00 in 807 W/m2
16:09 64.2 °F 49.6 °F 30.16 in South 9.0 mph 18.0 mph 59 % 0.00 in 265 W/m2
16:14 64.2 °F 48.2 °F 30.15 in South 9.0 mph 15.0 mph 56 % 0.00 in 285 W/m2
16:19 64.6 °F 49.0 °F 30.15 in South 8.0 mph 13.0 mph 57 % 0.00 in 759 W/m2
16:24 64.9 °F 48.9 °F 30.15 in SSW 8.0 mph 15.0 mph 56 % 0.00 in 729 W/m2
16:29 64.6 °F 48.5 °F 30.15 in SSW 8.0 mph 15.0 mph 56 % 0.00 in 214 W/m2
16:34 64.0 °F 48.5 °F 30.15 in SSW 7.0 mph 15.0 mph 57 % 0.00 in 178 W/m2
16:39 63.7 °F 48.6 °F 30.15 in SSW 7.0 mph 13.0 mph 58 % 0.00 in 241 W/m2
16:44 63.5 °F 48.5 °F 30.15 in SSW 7.0 mph 13.0 mph 58 % 0.00 in 679 W/m2
16:45 63.5 °F 48.5 °F 30.15 in SSW 7.0 mph 13.0 mph 58 % 0.00 in 677 W/m2
16:50 64.0 °F 48.5 °F 30.14 in SSW 8.0 mph 14.0 mph 57 % 0.00 in 573 W/m2
16:55 64.2 °F 48.2 °F 30.14 in SSE 8.0 mph 14.0 mph 56 % 0.00 in 276 W/m2
17:00 64.2 °F 48.7 °F 30.14 in SSE 8.0 mph 14.0 mph 57 % 0.00 in 214 W/m2
17:05 64.2 °F 49.1 °F 30.14 in South 7.0 mph 13.0 mph 58 % 0.00 in 174 W/m2
17:10 64.0 °F 48.5 °F 30.14 in South 6.0 mph 11.0 mph 57 % 0.00 in 193 W/m2
17:15 64.0 °F 48.5 °F 30.14 in South 6.0 mph 13.0 mph 57 % 0.00 in 596 W/m2
17:20 64.2 °F 47.7 °F 30.14 in South 7.0 mph 15.0 mph 55 % 0.00 in 229 W/m2
17:25 64.0 °F 48.5 °F 30.14 in South 8.0 mph 16.0 mph 57 % 0.00 in 244 W/m2
17:30 64.0 °F 49.0 °F 30.14 in South 8.0 mph 16.0 mph 58 % 0.00 in 163 W/m2
17:35 63.7 °F 49.1 °F 30.14 in South 8.0 mph 16.0 mph 59 % 0.00 in 174 W/m2
17:40 63.3 °F 48.7 °F 30.14 in South 8.0 mph 15.0 mph 59 % 0.00 in 172 W/m2
17:45 63.3 °F 48.3 °F 30.14 in South 6.0 mph 11.0 mph 58 % 0.00 in 142 W/m2
17:50 63.1 °F 48.1 °F 30.14 in South 7.0 mph 18.0 mph 58 % 0.00 in 167 W/m2
17:55 63.1 °F 47.7 °F 30.14 in South 9.0 mph 18.0 mph 57 % 0.00 in 415 W/m2
18:00 63.1 °F 47.7 °F 30.14 in South 9.0 mph 15.0 mph 57 % 0.00 in 188 W/m2
18:06 63.0 °F 47.5 °F 30.13 in SSW 9.0 mph 19.0 mph 57 % 0.00 in 385 W/m2
18:08 63.1 °F 48.1 °F 30.13 in SSW 9.0 mph 19.0 mph 58 % 0.00 in 392 W/m2
18:13 63.3 °F 48.3 °F 30.13 in SSW 8.0 mph 15.0 mph 58 % 0.00 in 362 W/m2
18:18 63.7 °F 48.2 °F 30.13 in South 8.0 mph 15.0 mph 57 % 0.00 in 329 W/m2
18:23 63.9 °F 47.9 °F 30.12 in South 8.0 mph 16.0 mph 56 % 0.00 in 339 W/m2
18:28 63.7 °F 46.7 °F 30.13 in South 8.0 mph 16.0 mph 54 % 0.00 in 278 W/m2
18:33 63.3 °F 46.9 °F 30.13 in SSW 8.0 mph 16.0 mph 55 % 0.00 in 144 W/m2
18:39 63.3 °F 47.3 °F 30.12 in SSW 6.0 mph 12.0 mph 56 % 0.00 in 190 W/m2
18:44 63.5 °F 47.0 °F 30.12 in South 5.0 mph 10.0 mph 55 % 0.00 in 127 W/m2
18:49 63.3 °F 47.3 °F 30.12 in South 7.0 mph 13.0 mph 56 % 0.00 in 109 W/m2
18:54 63.1 °F 47.7 °F 30.12 in South 7.0 mph 13.0 mph 57 % 0.00 in 123 W/m2
18:59 63.0 °F 47.5 °F 30.12 in SSE 6.0 mph 15.0 mph 57 % 0.00 in 116 W/m2
19:04 62.8 °F 47.3 °F 30.12 in SSE 8.0 mph 15.0 mph 57 % 0.00 in 114 W/m2
19:09 62.4 °F 47.4 °F 30.12 in SSE 7.0 mph 12.0 mph 58 % 0.00 in 128 W/m2
19:14 62.2 °F 47.3 °F 30.12 in South 5.0 mph 12.0 mph 58 % 0.00 in 153 W/m2
19:19 62.2 °F 47.7 °F 30.12 in SSE 6.0 mph 12.0 mph 59 % 0.00 in 158 W/m2
19:24 62.4 °F 47.4 °F 30.12 in SSE 5.0 mph 11.0 mph 58 % 0.00 in 156 W/m2
19:29 62.4 °F 47.9 °F 30.12 in SE 5.0 mph 10.0 mph 59 % 0.00 in 128 W/m2
19:34 62.4 °F 47.9 °F 30.12 in SSE 5.0 mph 10.0 mph 59 % 0.00 in 88 W/m2
19:39 62.4 °F 48.3 °F 30.12 in SSE 4.0 mph 9.0 mph 60 % 0.00 in 86 W/m2
19:44 62.4 °F 48.3 °F 30.11 in SSE 5.0 mph 10.0 mph 60 % 0.00 in 77 W/m2
19:49 62.2 °F 48.6 °F 30.11 in SE 6.0 mph 12.0 mph 61 % 0.00 in 83 W/m2
19:54 62.1 °F 48.4 °F 30.11 in SE 7.0 mph 12.0 mph 61 % 0.00 in 69 W/m2
20:04 61.5 °F 48.4 °F 30.11 in SE 5.0 mph 10.0 mph 62 % 0.00 in 53 W/m2
20:09 61.5 °F 48.4 °F 30.11 in SE 5.0 mph 8.0 mph 62 % 0.00 in 47 W/m2
20:14 61.3 °F 48.6 °F 30.11 in SE 4.0 mph 8.0 mph 63 % 0.00 in 42 W/m2
20:19 61.0 °F 48.7 °F 30.11 in ESE 4.0 mph 7.0 mph 64 % 0.00 in 39 W/m2
20:24 60.8 °F 49.0 °F 30.11 in SE 3.0 mph 7.0 mph 65 % 0.00 in 35 W/m2
20:29 60.4 °F 49.0 °F 30.11 in SE 4.0 mph 8.0 mph 66 % 0.00 in 32 W/m2
20:34 60.3 °F 48.9 °F 30.11 in SE 4.0 mph 8.0 mph 66 % 0.00 in 26 W/m2
20:39 60.1 °F 49.1 °F 30.11 in SE 4.0 mph 6.0 mph 67 % 0.00 in 23 W/m2
20:44 59.7 °F 49.1 °F 30.11 in SE 3.0 mph 6.0 mph 68 % 0.00 in 18 W/m2
20:49 59.4 °F 49.2 °F 30.11 in SE 2.0 mph 6.0 mph 69 % 0.00 in 14 W/m2
20:54 59.2 °F 49.0 °F 30.11 in SE 2.0 mph 6.0 mph 69 % 0.00 in 11 W/m2
20:59 58.8 °F 49.1 °F 30.12 in SE 2.0 mph 5.0 mph 70 % 0.00 in 7 W/m2
21:04 58.5 °F 49.1 °F 30.11 in SE 2.0 mph 5.0 mph 71 % 0.00 in 5 W/m2
21:09 58.1 °F 48.7 °F 30.11 in SE 1.0 mph 4.0 mph 71 % 0.00 in 0 W/m2
21:14 57.7 °F 48.8 °F 30.11 in SE 1.0 mph 3.0 mph 72 % 0.00 in 0 W/m2
21:19 57.4 °F 48.8 °F 30.11 in SE 1.0 mph 2.0 mph 73 % 0.00 in 0 W/m2
21:24 57.0 °F 48.8 °F 30.11 in SE 1.0 mph 4.0 mph 74 % 0.00 in 0 W/m2
21:30 56.8 °F 48.6 °F 30.11 in SE 1.0 mph 4.0 mph 74 % 0.00 in 0 W/m2
21:35 56.5 °F 48.6 °F 30.11 in SE 2.0 mph 4.0 mph 75 % 0.00 in 0 W/m2
21:40 56.3 °F 48.5 °F 30.11 in ESE 2.0 mph 5.0 mph 75 % 0.00 in 0 W/m2
21:45 56.1 °F 48.3 °F 30.12 in ESE 3.0 mph 6.0 mph 75 % 0.00 in 0 W/m2
21:50 55.9 °F 48.5 °F 30.12 in ESE 3.0 mph 6.0 mph 76 % 0.00 in 0 W/m2
21:55 55.8 °F 48.3 °F 30.12 in ESE 2.0 mph 6.0 mph 76 % 0.00 in 0 W/m2
22:00 55.6 °F 48.1 °F 30.12 in ESE 1.0 mph 4.0 mph 76 % 0.00 in 0 W/m2
22:05 55.2 °F 48.1 °F 30.12 in Calm   2.0 mph 77 % 0.00 in 0 W/m2
22:10 55.0 °F 48.0 °F 30.11 in Calm   2.0 mph 77 % 0.00 in 0 W/m2
22:15 54.7 °F 47.6 °F 30.11 in Calm     77 % 0.00 in 0 W/m2
22:20 54.3 °F 47.6 °F 30.11 in Calm     78 % 0.00 in 0 W/m2
22:25 54.0 °F 47.6 °F 30.11 in Calm     79 % 0.00 in 0 W/m2
22:30 53.8 °F 47.4 °F 30.11 in Calm   1.0 mph 79 % 0.00 in 0 W/m2
22:35 53.4 °F 47.4 °F 30.11 in Calm   1.0 mph 80 % 0.00 in 0 W/m2
22:40 53.1 °F 47.1 °F 30.11 in Calm     80 % 0.00 in 0 W/m2
22:45 52.9 °F 47.2 °F 30.11 in Calm     81 % 0.00 in 0 W/m2
22:50 52.5 °F 46.9 °F 30.11 in Calm     81 % 0.00 in 0 W/m2
22:55 52.3 °F 47.0 °F 30.11 in Calm     82 % 0.00 in 0 W/m2
23:00 52.0 °F 47.0 °F 30.11 in Calm     83 % 0.00 in 0 W/m2
23:05 51.8 °F 46.8 °F 30.11 in Calm     83 % 0.00 in 0 W/m2
23:10 51.6 °F 46.9 °F 30.11 in Calm     84 % 0.00 in 0 W/m2
23:15 51.4 °F 46.8 °F 30.11 in Calm     84 % 0.00 in 0 W/m2
23:20 51.3 °F 46.6 °F 30.11 in Calm     84 % 0.00 in 0 W/m2
23:25 51.1 °F 46.4 °F 30.11 in Calm     84 % 0.00 in 0 W/m2
23:31 50.7 °F 46.4 °F 30.11 in Calm   4.0 mph 85 % 0.00 in 0 W/m2
23:36 50.5 °F 46.5 °F 30.11 in Calm   4.0 mph 86 % 0.00 in 0 W/m2
23:41 50.5 °F 46.5 °F 30.11 in ESE 1.0 mph 5.0 mph 86 % 0.00 in 0 W/m2
23:46 50.5 °F 46.8 °F 30.11 in ESE 1.0 mph 5.0 mph 87 % 0.00 in 0 W/m2
23:51 50.5 °F 46.8 °F 30.10 in ESE 1.0 mph 5.0 mph 87 % 0.00 in 0 W/m2
23:56 50.5 °F 46.8 °F 30.10 in ESE 1.0 mph 5.0 mph 87 % 0.00 in 0 W/m2
Delerius-Weather
Compliments of Weather Underground - 2.25 mb

Data updates at regular intervals.